createdAt,value
2023-03-11T00:00:39.673Z,0.72
2023-03-11T00:03:17.085Z,0.64
2023-03-11T00:05:46.623Z,0.58
2023-03-11T00:08:16.449Z,0.57
2023-03-11T00:10:46.385Z,0.49
2023-03-11T00:13:18.687Z,0.50
2023-03-11T00:15:49.818Z,0.47
2023-03-11T00:18:17.484Z,0.49
2023-03-11T00:20:47.818Z,0.51
2023-03-11T00:23:16.621Z,0.55
2023-03-11T00:25:46.321Z,0.54
2023-03-11T00:28:13.997Z,0.52
2023-03-11T00:30:44.773Z,0.48
2023-03-11T00:33:15.662Z,0.51
2023-03-11T00:35:42.912Z,0.55
2023-03-11T00:38:16.110Z,0.59
2023-03-11T00:40:44.295Z,0.61
2023-03-11T00:43:10.661Z,0.59
2023-03-11T00:45:45.879Z,0.64
2023-03-11T00:48:15.777Z,0.72
2023-03-11T00:50:43.214Z,0.73
2023-03-11T00:53:10.263Z,0.71
2023-03-11T00:55:36.772Z,0.71
2023-03-11T00:58:06.699Z,0.76
2023-03-11T01:00:38.176Z,0.74
2023-03-11T01:03:04.511Z,0.77
2023-03-11T01:05:39.683Z,0.73
2023-03-11T01:08:08.361Z,0.72
2023-03-11T01:10:35.594Z,0.84
2023-03-11T01:13:02.347Z,0.78
2023-03-11T01:15:38.106Z,0.76
2023-03-11T01:18:13.757Z,0.77
2023-03-11T01:20:40.206Z,0.77
2023-03-11T01:23:12.440Z,0.78
2023-03-11T01:25:41.252Z,0.78
2023-03-11T01:28:07.912Z,0.78
2023-03-11T01:30:41.420Z,0.78
2023-03-11T01:33:15.868Z,0.73
2023-03-11T01:35:42.527Z,0.66
2023-03-11T01:38:09.753Z,0.69
2023-03-11T01:40:45.832Z,0.66
2023-03-11T01:43:37.425Z,0.65
2023-03-11T01:46:34.140Z,0.65
2023-03-11T01:49:04.460Z,0.59
2023-03-11T01:51:41.368Z,0.59
2023-03-11T01:54:19.306Z,0.57
2023-03-11T01:56:46.641Z,0.56
2023-03-11T01:59:17.291Z,0.55
2023-03-11T02:02:01.282Z,0.53
2023-03-11T02:04:29.162Z,0.60
2023-03-11T02:06:56.838Z,0.54
2023-03-11T02:09:23.332Z,0.55
2023-03-11T02:11:53.021Z,0.54
2023-03-11T02:14:20.562Z,0.51
2023-03-11T02:16:49.250Z,0.52
2023-03-11T02:19:23.210Z,0.54
2023-03-11T02:21:52.532Z,0.58
2023-03-11T02:24:41.383Z,0.56
2023-03-11T02:27:17.960Z,0.57
2023-03-11T02:29:46.166Z,0.54
2023-03-11T02:32:15.822Z,0.63
2023-03-11T02:34:47.683Z,0.61
2023-03-11T02:37:20.677Z,0.59
2023-03-11T02:39:49.729Z,0.60
2023-03-11T02:42:32.187Z,0.58
2023-03-11T02:45:04.372Z,0.59
2023-03-11T02:47:37.666Z,0.57
2023-03-11T02:50:05.616Z,0.54
2023-03-11T02:52:35.769Z,0.55
2023-03-11T02:55:02.573Z,0.52
2023-03-11T02:57:28.923Z,0.47
2023-03-11T02:59:55.353Z,0.42
2023-03-11T03:02:21.669Z,0.40
2023-03-11T03:04:53.610Z,0.35
2023-03-11T03:07:23.663Z,0.34
2023-03-11T03:09:50.119Z,0.34
2023-03-11T03:12:21.524Z,0.27
2023-03-11T03:14:54.631Z,0.18
2023-03-11T03:17:22.197Z,0.16
2023-03-11T03:19:48.885Z,0.07
2023-03-11T03:22:18.318Z,0.01
2023-03-11T03:24:46.848Z,-0.05
2023-03-11T03:27:13.201Z,-0.12
2023-03-11T03:29:42.718Z,-0.18
2023-03-11T03:32:09.183Z,-0.25
2023-03-11T03:34:38.041Z,-0.30
2023-03-11T03:37:04.362Z,-0.36
2023-03-11T03:39:33.868Z,-0.45
2023-03-11T03:42:00.212Z,-0.46
2023-03-11T03:44:27.802Z,-0.50
2023-03-11T03:46:57.678Z,-0.56
2023-03-11T03:49:24.020Z,-0.61
2023-03-11T03:51:50.368Z,-0.66
2023-03-11T03:54:20.903Z,-0.75
2023-03-11T03:56:49.670Z,-0.73
2023-03-11T03:59:15.977Z,-0.73
2023-03-11T04:01:42.356Z,-0.77
2023-03-11T04:04:11.163Z,-0.83
2023-03-11T04:06:38.704Z,-0.85
2023-03-11T04:09:05.244Z,-0.86
2023-03-11T04:11:33.290Z,-0.86
2023-03-11T04:13:59.736Z,-0.87
2023-03-11T04:16:26.156Z,-0.88
2023-03-11T04:18:54.534Z,-0.89
2023-03-11T04:21:20.939Z,-0.87
2023-03-11T04:23:50.321Z,-0.86
2023-03-11T04:26:19.880Z,-0.91
2023-03-11T04:28:47.470Z,-0.90
2023-03-11T04:31:13.941Z,-0.90
2023-03-11T04:33:40.376Z,-0.95
2023-03-11T04:36:08.293Z,-0.97
2023-03-11T04:38:35.025Z,-1.03
2023-03-11T04:41:06.429Z,-1.02
2023-03-11T04:43:33.769Z,-1.05
2023-03-11T04:46:00.355Z,-1.08
2023-03-11T04:48:26.776Z,-1.12
2023-03-11T04:50:56.066Z,-1.15
2023-03-11T04:53:25.316Z,-1.18
2023-03-11T04:55:52.897Z,-1.23
2023-03-11T04:58:22.765Z,-1.26
2023-03-11T05:00:49.189Z,-1.30
2023-03-11T05:03:16.826Z,-1.32
2023-03-11T05:05:48.542Z,-1.36
2023-03-11T05:08:14.870Z,-1.43
2023-03-11T05:10:42.097Z,-1.42
2023-03-11T05:13:11.072Z,-1.39
2023-03-11T05:15:37.467Z,-1.41
2023-03-11T05:18:07.090Z,-1.46
2023-03-11T05:20:33.813Z,-1.51
2023-03-11T05:23:00.285Z,-1.54
2023-03-11T05:25:35.631Z,-1.54
2023-03-11T05:28:07.537Z,-1.56
2023-03-11T05:30:36.936Z,-1.55
2023-03-11T05:33:03.553Z,-1.59
2023-03-11T05:35:34.221Z,-1.59
2023-03-11T05:38:03.335Z,-1.61
2023-03-11T05:40:38.309Z,-1.63
2023-03-11T05:43:07.045Z,-1.69
2023-03-11T05:45:36.967Z,-1.74
2023-03-11T05:48:14.096Z,-1.73
2023-03-11T05:50:43.545Z,-1.76
2023-03-11T05:53:09.944Z,-1.75
2023-03-11T05:55:38.703Z,-1.76
2023-03-11T05:58:05.184Z,-1.80
2023-03-11T06:00:36.005Z,-1.79
2023-03-11T06:03:03.599Z,-1.81
2023-03-11T06:05:31.119Z,-1.81
2023-03-11T06:07:57.684Z,-1.80
2023-03-11T06:10:26.831Z,-1.81
2023-03-11T06:12:55.558Z,-1.80
2023-03-11T06:15:21.888Z,-1.79
2023-03-11T06:17:48.420Z,-1.76
2023-03-11T06:20:17.508Z,-1.77
2023-03-11T06:22:47.819Z,-1.73
2023-03-11T06:25:14.340Z,-1.69
2023-03-11T06:27:43.302Z,-1.69
2023-03-11T06:30:10.977Z,-1.63
2023-03-11T06:32:37.600Z,-1.59
2023-03-11T06:35:07.572Z,-1.53
2023-03-11T06:37:36.161Z,-1.49
2023-03-11T06:40:07.606Z,-1.43
2023-03-11T06:42:36.725Z,-1.34
2023-03-11T06:45:06.872Z,-1.18
2023-03-11T06:47:33.486Z,-0.97
2023-03-11T06:50:03.716Z,-0.60
2023-03-11T06:52:30.072Z,0.02
2023-03-11T06:54:57.523Z,0.40
2023-03-11T06:57:26.534Z,0.78
2023-03-11T06:59:53.237Z,0.68
2023-03-11T07:02:24.008Z,0.55
2023-03-11T07:04:50.517Z,0.59
2023-03-11T07:07:17.199Z,0.79
2023-03-11T07:09:43.651Z,0.86
2023-03-11T07:12:10.228Z,1.12
2023-03-11T07:14:41.279Z,0.99
2023-03-11T07:17:07.688Z,1.22
2023-03-11T07:19:34.284Z,1.35
2023-03-11T07:22:02.915Z,1.28
2023-03-11T07:24:32.713Z,1.38
2023-03-11T07:27:03.721Z,1.57
2023-03-11T07:29:30.106Z,1.60
2023-03-11T07:31:56.558Z,1.91
2023-03-11T07:34:25.176Z,2.12
2023-03-11T07:36:51.526Z,2.21
2023-03-11T07:39:18.986Z,2.24
2023-03-11T07:41:46.183Z,2.23
2023-03-11T07:44:18.348Z,2.37
2023-03-11T07:46:45.746Z,2.60
2023-03-11T07:49:12.592Z,2.67
2023-03-11T07:51:40.079Z,2.78
2023-03-11T07:54:06.803Z,2.88
2023-03-11T07:56:36.461Z,3.09
2023-03-11T07:59:08.343Z,3.17
2023-03-11T08:01:35.055Z,3.17
2023-03-11T08:04:14.837Z,3.36
2023-03-11T08:06:48.436Z,3.62
2023-03-11T08:09:15.348Z,3.67
2023-03-11T08:11:43.264Z,3.79
2023-03-11T08:14:11.969Z,4.03
2023-03-11T08:16:39.984Z,4.16
2023-03-11T08:19:13.065Z,4.65
2023-03-11T08:21:42.102Z,5.08
2023-03-11T08:24:13.381Z,5.00
2023-03-11T08:26:44.059Z,5.25
2023-03-11T08:29:10.441Z,5.40
2023-03-11T08:31:40.169Z,5.61
2023-03-11T08:34:09.097Z,5.88
2023-03-11T08:36:35.620Z,6.12
2023-03-11T08:39:02.180Z,6.33
2023-03-11T08:41:28.819Z,6.63
2023-03-11T08:43:57.935Z,7.06
2023-03-11T08:46:36.177Z,7.13
2023-03-11T08:49:06.456Z,7.06
2023-03-11T08:51:34.367Z,6.91
2023-03-11T08:54:04.546Z,6.85
2023-03-11T08:56:31.100Z,6.89
2023-03-11T08:58:57.553Z,7.37
2023-03-11T09:01:24.007Z,6.92
2023-03-11T09:03:51.981Z,7.44
2023-03-11T09:06:21.624Z,7.17
2023-03-11T09:08:49.155Z,7.34
2023-03-11T09:11:19.872Z,7.80
2023-03-11T09:13:46.159Z,7.84
2023-03-11T09:16:19.467Z,7.17
2023-03-11T09:18:48.982Z,7.48
2023-03-11T09:21:17.938Z,6.96
2023-03-11T09:23:44.786Z,6.69
2023-03-11T09:26:14.933Z,6.50
2023-03-11T09:28:42.469Z,6.93
2023-03-11T09:31:09.787Z,6.70
2023-03-11T09:33:38.861Z,6.48
2023-03-11T09:36:06.897Z,6.39
2023-03-11T09:38:33.595Z,6.29
2023-03-11T09:41:08.297Z,6.41
2023-03-11T09:43:48.321Z,6.25
2023-03-11T09:46:17.905Z,6.63
2023-03-11T09:48:54.751Z,6.90
2023-03-11T09:51:28.168Z,7.76
2023-03-11T09:54:04.970Z,8.72
2023-03-11T09:56:35.567Z,8.66
2023-03-11T09:59:07.817Z,9.08
2023-03-11T10:01:37.409Z,9.56
2023-03-11T10:04:19.769Z,9.37
2023-03-11T10:06:49.352Z,9.66
2023-03-11T10:09:39.364Z,9.82
2023-03-11T10:12:20.088Z,9.20
2023-03-11T10:14:52.728Z,9.40
2023-03-11T10:17:33.556Z,9.39
2023-03-11T10:20:16.077Z,9.19
2023-03-11T10:22:51.290Z,8.94
2023-03-11T10:25:42.227Z,8.96
2023-03-11T10:28:24.087Z,8.42
2023-03-11T10:30:57.785Z,7.83
2023-03-11T10:33:45.310Z,8.18
2023-03-11T10:36:19.903Z,8.28
2023-03-11T10:38:48.804Z,8.45
2023-03-11T10:42:20.204Z,9.15
2023-03-11T10:44:46.737Z,8.70
2023-03-11T10:47:24.938Z,8.32
2023-03-11T10:49:54.078Z,8.26
2023-03-11T10:52:20.743Z,9.21
2023-03-11T10:54:59.374Z,9.70
2023-03-11T10:57:29.991Z,8.96
2023-03-11T11:00:01.616Z,9.43
2023-03-11T11:02:35.216Z,9.13
2023-03-11T11:05:21.925Z,10.34
2023-03-11T11:07:51.739Z,10.55
2023-03-11T11:10:24.466Z,10.99
2023-03-11T11:12:58.775Z,11.20
2023-03-11T11:15:32.207Z,9.61
2023-03-11T11:18:05.902Z,11.18
2023-03-11T11:20:33.978Z,11.83
2023-03-11T11:23:03.777Z,12.73
2023-03-11T11:25:36.893Z,10.83
2023-03-11T11:28:13.671Z,11.10
2023-03-11T11:30:55.695Z,12.80
2023-03-11T11:33:49.412Z,12.49
2023-03-11T11:36:20.669Z,12.74
2023-03-11T11:38:52.565Z,12.57
2023-03-11T11:41:24.403Z,10.07
2023-03-11T11:43:57.758Z,9.47
2023-03-11T11:46:30.433Z,11.32
2023-03-11T11:49:11.817Z,12.10
2023-03-11T11:51:45.775Z,11.37
2023-03-11T11:54:23.876Z,12.43
2023-03-11T11:56:51.843Z,12.87
2023-03-11T11:59:21.933Z,11.44
2023-03-11T12:02:16.372Z,12.66
2023-03-11T12:04:57.215Z,13.26
2023-03-11T12:07:52.705Z,12.02
2023-03-11T12:10:47.287Z,11.79
2023-03-11T12:13:44.179Z,12.00
2023-03-11T12:16:34.624Z,12.83
2023-03-11T12:19:37.454Z,13.77
2023-03-11T12:22:39.513Z,14.03
2023-03-11T12:25:25.167Z,15.08
2023-03-11T12:27:59.734Z,13.58
2023-03-11T12:30:35.933Z,14.63
2023-03-11T12:33:14.960Z,14.02
2023-03-11T12:35:51.626Z,13.39
2023-03-11T12:38:40.222Z,14.66
2023-03-11T12:41:28.102Z,15.34
2023-03-11T12:44:17.477Z,15.53
2023-03-11T12:46:59.346Z,15.55
2023-03-11T12:49:29.990Z,16.05
2023-03-11T12:52:26.216Z,16.36
2023-03-11T12:55:02.507Z,16.47
2023-03-11T12:57:45.746Z,17.44
2023-03-11T13:00:27.216Z,16.79
2023-03-11T13:03:28.917Z,14.71
2023-03-11T13:06:16.572Z,13.73
2023-03-11T13:08:50.432Z,15.27
2023-03-11T13:11:32.258Z,15.64
2023-03-11T13:14:26.598Z,13.32
2023-03-11T13:16:53.843Z,13.67
2023-03-11T13:19:29.141Z,14.25
2023-03-11T13:22:02.555Z,15.02
2023-03-11T13:24:31.792Z,15.28
2023-03-11T13:27:04.045Z,14.93
2023-03-11T13:29:40.137Z,14.75
2023-03-11T13:32:17.615Z,15.29
2023-03-11T13:35:01.526Z,15.10
2023-03-11T13:37:39.970Z,15.72
2023-03-11T13:40:32.500Z,15.15
2023-03-11T13:43:04.169Z,13.71
2023-03-11T13:45:33.692Z,13.04
2023-03-11T13:48:07.079Z,13.24
2023-03-11T13:50:56.734Z,14.62
2023-03-11T13:53:32.331Z,16.21
2023-03-11T13:56:00.672Z,16.81
2023-03-11T13:58:34.332Z,16.64
2023-03-11T14:01:03.217Z,15.80
2023-03-11T14:03:35.801Z,14.82
2023-03-11T14:06:06.480Z,14.61
2023-03-11T14:08:38.738Z,13.09
2023-03-11T14:11:09.324Z,12.47
2023-03-11T14:13:40.384Z,12.55
2023-03-11T14:16:22.535Z,12.22
2023-03-11T14:19:01.905Z,12.27
2023-03-11T14:21:28.880Z,13.07
2023-03-11T14:23:56.141Z,14.35
2023-03-11T14:26:35.079Z,14.53
2023-03-11T14:29:09.036Z,14.84
2023-03-11T14:31:40.644Z,14.66
2023-03-11T14:34:09.787Z,13.91
2023-03-11T14:36:44.560Z,11.56
2023-03-11T14:39:35.418Z,10.92
2023-03-11T14:42:33.534Z,11.82
2023-03-11T14:45:16.295Z,10.90
2023-03-11T14:48:17.149Z,11.01
2023-03-11T14:50:51.168Z,11.01
2023-03-11T14:53:33.696Z,11.04
2023-03-11T14:56:16.349Z,11.21
2023-03-11T14:58:55.724Z,13.91
2023-03-11T15:01:32.334Z,16.86
2023-03-11T15:04:12.841Z,16.96
2023-03-11T15:06:46.712Z,17.62
2023-03-11T15:09:19.156Z,17.75
2023-03-11T15:11:49.010Z,17.78
2023-03-11T15:14:35.639Z,13.18
2023-03-11T15:17:30.973Z,12.54
2023-03-11T15:20:00.594Z,12.82
2023-03-11T15:22:39.918Z,14.00
2023-03-11T15:25:17.787Z,14.92
2023-03-11T15:27:51.756Z,15.26
2023-03-11T15:30:31.442Z,16.83
2023-03-11T15:32:59.063Z,17.06
2023-03-11T15:35:27.882Z,16.57
2023-03-11T15:38:30.661Z,14.77
2023-03-11T15:40:58.236Z,14.20
2023-03-11T15:46:25.210Z,11.67
2023-03-11T15:48:54.006Z,10.86
2023-03-11T15:56:47.907Z,9.60
2023-03-11T15:59:16.933Z,9.80
2023-03-11T16:01:43.799Z,11.06
2023-03-11T16:04:19.331Z,10.45
2023-03-11T16:06:59.526Z,11.62
2023-03-11T16:09:33.261Z,12.82
2023-03-11T16:12:01.179Z,12.30
2023-03-11T16:14:31.077Z,13.08
2023-03-11T16:16:57.463Z,13.63
2023-03-11T16:19:23.907Z,12.76
2023-03-11T16:21:50.603Z,13.64
2023-03-11T16:24:23.308Z,11.51
2023-03-11T16:29:29.823Z,9.89
2023-03-11T16:31:57.503Z,9.30
2023-03-11T16:34:23.919Z,10.19
2023-03-11T16:36:50.516Z,10.17
2023-03-11T16:39:16.950Z,9.45
2023-03-11T16:41:44.689Z,8.22
2023-03-11T16:44:13.521Z,8.18
2023-03-11T16:46:40.025Z,8.56
2023-03-11T16:49:07.622Z,7.66
2023-03-11T16:51:34.147Z,7.85
2023-03-11T16:54:01.955Z,8.22
2023-03-11T16:56:28.345Z,8.34
2023-03-11T16:58:54.770Z,8.05
2023-03-11T17:01:22.278Z,7.82
2023-03-11T17:03:55.481Z,7.45
2023-03-11T17:06:21.835Z,7.32
2023-03-11T17:08:51.212Z,7.04
2023-03-11T17:11:20.470Z,6.89
2023-03-11T17:14:00.580Z,6.94
2023-03-11T17:16:40.559Z,6.39
2023-03-11T17:19:09.312Z,6.13
2023-03-11T17:21:35.825Z,5.91
2023-03-11T17:24:05.720Z,5.82
2023-03-11T17:26:32.110Z,5.91
2023-03-11T17:28:59.358Z,5.81
2023-03-11T17:31:28.082Z,5.83
2023-03-11T17:34:00.628Z,5.83
2023-03-11T17:36:28.676Z,5.78
2023-03-11T17:38:57.996Z,5.91
2023-03-11T17:41:25.931Z,5.99
2023-03-11T17:43:59.740Z,5.98
2023-03-11T17:46:26.224Z,5.66
2023-03-11T17:48:54.736Z,5.63
2023-03-11T17:51:25.307Z,5.43
2023-03-11T17:53:54.449Z,5.25
2023-03-11T17:56:21.708Z,5.07
2023-03-11T17:58:50.771Z,5.06
2023-03-11T18:01:20.342Z,4.85
2023-03-11T18:03:49.469Z,4.80
2023-03-11T18:06:22.820Z,4.72
2023-03-11T18:08:52.549Z,4.69
2023-03-11T18:11:28.363Z,4.31
2023-03-11T18:13:55.310Z,4.14
2023-03-11T18:16:25.216Z,3.94
2023-03-11T18:19:03.665Z,3.73
2023-03-11T18:21:33.792Z,3.66
2023-03-11T18:24:00.792Z,3.57
2023-03-11T18:26:30.487Z,3.39
2023-03-11T18:28:58.960Z,3.26
2023-03-11T18:31:26.891Z,3.13
2023-03-11T18:33:56.640Z,3.25
2023-03-11T18:36:26.183Z,3.24
2023-03-11T18:38:55.588Z,3.00
2023-03-11T18:41:25.504Z,2.64
2023-03-11T18:43:59.095Z,2.77
2023-03-11T18:46:31.473Z,2.75
2023-03-11T18:48:59.696Z,2.74
2023-03-11T18:51:28.267Z,2.62
2023-03-11T18:53:54.796Z,2.77
2023-03-11T18:56:23.009Z,2.69
2023-03-11T18:58:49.354Z,2.58
2023-03-11T19:01:18.038Z,2.59
2023-03-11T19:03:50.455Z,2.58
2023-03-11T19:06:19.876Z,2.48
2023-03-11T19:08:48.697Z,2.67
2023-03-11T19:11:18.522Z,2.72
2023-03-11T19:13:47.697Z,2.65
2023-03-11T19:16:17.260Z,2.82
2023-03-11T19:18:44.474Z,2.76
2023-03-11T19:21:15.713Z,2.66
2023-03-11T19:23:42.592Z,2.64
2023-03-11T19:26:09.416Z,2.55
2023-03-11T19:28:38.022Z,2.63
2023-03-11T19:31:05.400Z,2.43
2023-03-11T19:33:32.163Z,2.35
2023-03-11T19:36:03.419Z,2.27
2023-03-11T19:38:30.396Z,2.21
2023-03-11T19:41:04.667Z,2.23
2023-03-11T19:43:36.819Z,2.31
2023-03-11T19:46:13.755Z,2.34
2023-03-11T19:48:42.475Z,2.30
2023-03-11T19:51:09.089Z,2.37
2023-03-11T19:53:36.677Z,2.25
2023-03-11T19:56:05.615Z,2.28
2023-03-11T19:58:34.756Z,2.18
2023-03-11T20:01:01.359Z,2.01
2023-03-11T20:03:30.023Z,2.00
2023-03-11T20:05:59.279Z,1.90
2023-03-11T20:08:31.148Z,1.85
2023-03-11T20:11:00.888Z,1.77
2023-03-11T20:13:27.630Z,1.79
2023-03-11T20:16:02.069Z,1.66
2023-03-11T20:18:28.658Z,1.59
2023-03-11T20:20:55.129Z,1.51
2023-03-11T20:23:21.538Z,1.42
2023-03-11T20:28:23.182Z,1.37
2023-03-11T20:30:50.762Z,1.28
2023-03-11T23:12:39.698Z,0.72
2023-03-11T23:15:09.464Z,0.77
2023-03-11T23:17:41.563Z,0.71
2023-03-11T23:20:11.872Z,0.76
2023-03-11T23:22:40.947Z,0.69
2023-03-11T23:25:14.808Z,0.67
2023-03-11T23:27:43.077Z,0.87
2023-03-11T23:30:17.129Z,0.82
2023-03-11T23:32:44.669Z,0.88
2023-03-11T23:35:12.168Z,0.88
2023-03-11T23:37:38.736Z,0.87
2023-03-11T23:40:09.285Z,0.89
2023-03-11T23:42:36.112Z,0.91
2023-03-11T23:45:02.963Z,0.88
2023-03-11T23:47:32.403Z,0.89
2023-03-11T23:49:58.809Z,0.97
2023-03-11T23:52:27.809Z,1.02
2023-03-11T23:54:55.179Z,1.14
2023-03-11T23:57:21.801Z,1.26
2023-03-11T23:59:54.901Z,1.10
